Time;durP1;ratioP1;P1;durP2;ratioP2;P2;SDS_P1;SDS_P2;PMS_P1;PMS_P2;Temp;Humidity;BMP_temperature;BMP_pressure;BME280_temperature;BME280_humidity;BME280_pressure;Samples;Min_cycle;Max_cycle;Signal;HPM_P1;HPM_P2
2022/01/07 00:01:52;;;;;;;1.40;1.10;;;-5.60;99.90;;;;;;4935699;29;20024;-78
2022/01/07 00:04:18;;;;;;;1.08;1.00;;;-5.70;99.90;;;;;;4935995;29;20032;-76
2022/01/07 00:06:44;;;;;;;1.58;1.10;;;-5.70;99.90;;;;;;4935628;29;20031;-76
2022/01/07 00:09:10;;;;;;;3.17;1.25;;;-5.80;99.90;;;;;;4936037;29;20407;-78
2022/01/07 00:11:36;;;;;;;2.00;1.23;;;-5.80;99.90;;;;;;4935615;29;20467;-78
2022/01/07 00:14:01;;;;;;;2.05;1.08;;;-5.90;99.90;;;;;;4934350;29;20035;-79
2022/01/07 00:16:27;;;;;;;2.25;1.20;;;-5.90;99.90;;;;;;4935862;29;20060;-79
2022/01/07 00:18:53;;;;;;;1.42;0.93;;;-5.90;99.90;;;;;;4935466;29;20443;-78
2022/01/07 00:21:20;;;;;;;3.47;1.08;;;-5.90;99.90;;;;;;4935545;29;20032;-76
2022/01/07 00:23:46;;;;;;;1.05;0.98;;;-6.00;99.90;;;;;;4935663;29;20514;-76
2022/01/07 00:26:12;;;;;;;2.95;1.20;;;-6.00;99.90;;;;;;4935017;29;20071;-79
2022/01/07 00:28:37;;;;;;;3.00;1.10;;;-6.00;99.90;;;;;;4935410;29;20047;-76
2022/01/07 00:31:03;;;;;;;2.30;1.10;;;-6.00;99.90;;;;;;4935662;29;20031;-79
2022/01/07 00:33:29;;;;;;;0.90;0.90;;;-6.00;99.90;;;;;;4935592;29;20030;-76
2022/01/07 00:35:56;;;;;;;3.08;0.90;;;-6.10;99.90;;;;;;4935026;29;20484;-78
2022/01/07 00:38:23;;;;;;;1.13;0.95;;;-6.20;99.90;;;;;;4935067;29;20125;-80
2022/01/07 00:40:49;;;;;;;2.28;1.30;;;-6.20;99.90;;;;;;4935356;29;20032;-80
2022/01/07 00:43:15;;;;;;;1.75;1.00;;;-6.10;99.90;;;;;;4935497;29;20371;-77
2022/01/07 00:45:41;;;;;;;4.35;1.00;;;-6.10;99.90;;;;;;4935184;29;20086;-77
2022/01/07 00:48:07;;;;;;;3.63;1.27;;;-6.10;99.90;;;;;;4935063;29;20035;-80
2022/01/07 00:50:33;;;;;;;1.27;0.90;;;-6.10;99.90;;;;;;4935099;29;20028;-80
2022/01/07 00:53:00;;;;;;;4.03;1.13;;;-6.20;99.90;;;;;;4935127;29;20110;-80
2022/01/07 00:55:26;;;;;;;3.35;1.08;;;-6.20;99.90;;;;;;4935048;29;20035;-80
2022/01/07 00:57:54;;;;;;;3.67;1.10;;;-6.30;99.90;;;;;;4934828;29;20471;-80
2022/01/07 01:00:23;;;;;;;1.20;1.10;;;-6.30;99.90;;;;;;4934983;29;20024;-80
2022/01/07 01:02:49;;;;;;;3.20;1.33;;;-6.30;99.90;;;;;;4934755;29;20024;-81
2022/01/07 01:05:15;;;;;;;1.27;1.10;;;-6.40;99.90;;;;;;4934829;29;20046;-81
2022/01/07 01:07:42;;;;;;;3.22;1.23;;;-6.40;99.90;;;;;;4934676;29;20060;-81
2022/01/07 01:10:10;;;;;;;2.40;1.15;;;-6.40;99.90;;;;;;4935230;29;20440;-82
2022/01/07 01:12:38;;;;;;;2.63;1.10;;;-6.50;99.90;;;;;;4934844;29;20027;-82
2022/01/07 01:15:06;;;;;;;1.20;1.10;;;-6.50;99.90;;;;;;4934937;29;20035;-82
2022/01/07 01:17:33;;;;;;;1.85;1.10;;;-6.60;99.90;;;;;;4933541;29;20028;-82
2022/01/07 01:19:58;;;;;;;2.97;1.30;;;-6.70;99.90;;;;;;4934834;29;20036;-81
2022/01/07 01:22:24;;;;;;;2.92;1.10;;;-6.70;99.90;;;;;;4934742;29;20137;-80
2022/01/07 01:24:50;;;;;;;3.92;1.25;;;-6.70;99.90;;;;;;4934747;29;20040;-81
2022/01/07 01:27:16;;;;;;;1.77;1.20;;;-6.80;99.90;;;;;;4934933;29;20121;-79
2022/01/07 01:29:42;;;;;;;3.90;1.00;;;-6.80;99.90;;;;;;4934828;29;20028;-79
2022/01/07 01:32:08;;;;;;;3.58;1.20;;;-6.80;99.90;;;;;;4934876;29;20127;-79
2022/01/07 01:34:33;;;;;;;1.20;1.10;;;-6.90;99.90;;;;;;4934944;29;20070;-79
2022/01/07 01:37:00;;;;;;;3.00;1.20;;;-7.00;99.90;;;;;;4934484;29;20534;-78
2022/01/07 01:39:26;;;;;;;1.50;1.10;;;-7.00;99.90;;;;;;4937698;29;20138;-79
2022/01/07 01:41:52;;;;;;;2.40;1.10;;;-7.10;99.90;;;;;;4938201;29;20122;-80
2022/01/07 01:44:18;;;;;;;1.33;1.23;;;-7.10;99.90;;;;;;4938319;29;20042;-76
2022/01/07 01:46:44;;;;;;;3.38;1.27;;;-7.10;99.90;;;;;;4938222;29;20076;-76
2022/01/07 01:49:09;;;;;;;1.30;1.20;;;-7.10;99.90;;;;;;4938374;29;20032;-76
2022/01/07 01:51:35;;;;;;;1.77;1.27;;;-7.10;99.90;;;;;;4938299;29;20118;-76
2022/01/07 01:54:02;;;;;;;1.73;0.95;;;-7.10;99.90;;;;;;4938014;29;20059;-77
2022/01/07 01:56:28;;;;;;;2.72;1.17;;;-7.10;99.90;;;;;;4938230;29;20035;-77
2022/01/07 01:58:54;;;;;;;3.88;1.13;;;-7.10;99.90;;;;;;4937872;29;20388;-76
2022/01/07 02:01:20;;;;;;;3.00;1.77;;;-7.10;99.90;;;;;;4938163;29;20023;-79
2022/01/07 02:03:46;;;;;;;2.53;1.25;;;-7.20;99.90;;;;;;4938119;29;20175;-78
2022/01/07 02:06:11;;;;;;;1.42;1.25;;;-7.20;99.90;;;;;;4936771;29;20550;-78
2022/01/07 02:08:37;;;;;;;1.42;1.10;;;-7.20;99.90;;;;;;4936947;29;20032;-78
2022/01/07 02:11:04;;;;;;;1.30;1.20;;;-7.20;99.90;;;;;;4937763;29;20027;-77
2022/01/07 02:13:30;;;;;;;3.13;1.20;;;-7.20;99.90;;;;;;4937877;29;20028;-78
2022/01/07 02:15:56;;;;;;;2.53;1.00;;;-7.20;99.90;;;;;;4938001;29;20039;-78
2022/01/07 02:18:22;;;;;;;1.08;1.08;;;-7.20;99.90;;;;;;4937721;29;20407;-78
2022/01/07 02:20:48;;;;;;;1.23;1.00;;;-7.30;99.90;;;;;;4937634;29;20430;-78
2022/01/07 02:23:15;;;;;;;1.27;1.13;;;-7.40;99.90;;;;;;4937830;29;20024;-79
2022/01/07 02:54:45;;;;;;;2.72;1.27;;;-7.30;99.90;;;;;;4936187;29;20056;-78
2022/01/07 02:57:11;;;;;;;1.17;1.08;;;-7.30;99.90;;;;;;4937000;29;20507;-79
2022/01/07 02:59:36;;;;;;;1.35;1.13;;;-7.30;99.90;;;;;;4936839;29;20032;-78
2022/01/07 03:02:02;;;;;;;2.25;1.00;;;-7.40;99.90;;;;;;4935752;29;20468;-80
2022/01/07 03:38:08;;;;;;;1.10;1.10;;;-7.50;99.90;;;;;;5384615;23;20048;-79
2022/01/07 03:40:34;;;;;;;1.08;1.05;;;-7.60;99.90;;;;;;4955327;28;20042;-78
2022/01/07 03:43:01;;;;;;;2.75;1.30;;;-7.60;99.90;;;;;;4955394;28;20483;-78
2022/01/07 03:45:27;;;;;;;3.83;1.10;;;-7.60;99.90;;;;;;4955027;28;20050;-78
2022/01/07 03:47:53;;;;;;;2.38;1.20;;;-7.70;99.90;;;;;;4955159;28;20031;-78
2022/01/07 03:50:21;;;;;;;1.92;1.20;;;-7.70;99.90;;;;;;4955395;28;20023;-78
2022/01/07 03:52:48;;;;;;;1.00;1.00;;;-7.70;99.90;;;;;;4955238;28;20078;-78
2022/01/07 03:55:17;;;;;;;2.88;1.10;;;-7.70;99.90;;;;;;4954931;28;20069;-78
2022/01/07 03:57:43;;;;;;;1.20;1.10;;;-7.70;99.90;;;;;;4955001;28;20031;-79
2022/01/07 04:00:16;;;;;;;3.00;1.10;;;-7.70;99.90;;;;;;4953741;28;20023;-79
2022/01/07 04:02:43;;;;;;;2.25;1.00;;;-7.80;99.90;;;;;;4955141;28;20032;-79
2022/01/07 04:05:10;;;;;;;1.65;1.08;;;-7.90;99.90;;;;;;4954929;28;20035;-80
2022/01/07 04:07:35;;;;;;;1.23;1.13;;;-8.10;99.90;;;;;;4954752;28;20024;-78
2022/01/07 04:10:03;;;;;;;3.05;1.20;;;-8.10;99.90;;;;;;4954815;28;20031;-77
2022/01/07 04:12:29;;;;;;;2.50;1.10;;;-8.20;99.90;;;;;;4954566;28;20367;-76
2022/01/07 04:15:10;;;;;;;1.00;1.00;;;-8.30;99.90;;;;;;4955002;28;20031;-76
2022/01/07 04:17:45;;;;;;;2.25;1.10;;;-8.30;99.90;;;;;;4954859;28;20031;-77
2022/01/07 04:20:13;;;;;;;1.05;1.05;;;-8.30;99.90;;;;;;4954735;28;20027;-77
2022/01/07 04:22:39;;;;;;;0.80;0.80;;;-8.30;99.90;;;;;;4954717;28;20031;-78
2022/01/07 04:25:08;;;;;;;1.00;1.00;;;-8.30;99.90;;;;;;4954479;28;20506;-77
2022/01/07 04:27:33;;;;;;;1.67;1.20;;;-8.30;99.90;;;;;;4954569;28;20028;-78
2022/01/07 04:29:59;;;;;;;1.70;1.13;;;-8.30;99.90;;;;;;4954526;28;20031;-77
2022/01/07 04:32:25;;;;;;;4.45;1.30;;;-8.30;99.90;;;;;;4954300;28;20486;-77
2022/01/07 04:34:51;;;;;;;1.10;1.00;;;-8.30;99.90;;;;;;4954697;28;20035;-77
2022/01/07 04:37:17;;;;;;;2.92;1.10;;;-8.40;99.90;;;;;;4954066;28;20051;-77
2022/01/07 04:39:43;;;;;;;2.03;1.10;;;-8.40;99.90;;;;;;4954340;29;20483;-77
2022/01/07 04:42:09;;;;;;;1.50;1.17;;;-8.40;99.90;;;;;;4954313;28;20035;-77
2022/01/07 04:44:40;;;;;;;2.17;1.20;;;-8.40;99.90;;;;;;4954060;28;20038;-78
2022/01/07 04:47:06;;;;;;;4.13;1.02;;;-8.40;99.90;;;;;;4954652;28;20418;-78
2022/01/07 04:49:32;;;;;;;1.20;1.10;;;-8.40;99.90;;;;;;4954411;28;20364;-78
2022/01/07 04:51:58;;;;;;;2.10;1.13;;;-8.50;99.90;;;;;;4954358;28;20030;-78
2022/01/07 04:54:23;;;;;;;1.45;1.00;;;-8.50;99.90;;;;;;4954166;28;20031;-78
2022/01/07 04:56:49;;;;;;;1.25;1.20;;;-8.50;99.90;;;;;;4954522;28;20152;-78
2022/01/07 04:59:15;;;;;;;1.00;1.00;;;-8.50;99.90;;;;;;4954085;28;20046;-78
2022/01/07 05:01:40;;;;;;;4.57;1.10;;;-8.40;99.90;;;;;;4953969;28;20043;-78
2022/01/07 05:04:06;;;;;;;2.47;1.20;;;-8.50;99.90;;;;;;4953904;28;20083;-77
2022/01/07 05:06:45;;;;;;;1.30;1.20;;;-8.50;99.90;;;;;;4953885;28;20550;-77
2022/01/07 05:09:16;;;;;;;1.60;1.15;;;-8.40;99.90;;;;;;4952705;28;20031;-78
2022/01/07 05:11:43;;;;;;;1.23;1.10;;;-8.50;99.90;;;;;;4954232;28;20102;-77
2022/01/07 05:14:08;;;;;;;3.88;1.10;;;-8.50;99.90;;;;;;4959683;28;20034;-77
2022/01/07 05:16:34;;;;;;;2.13;1.10;;;-8.50;99.90;;;;;;4960131;28;20027;-80
2022/01/07 05:19:00;;;;;;;2.22;1.20;;;-8.50;99.90;;;;;;4960402;28;20035;-78
2022/01/07 05:21:26;;;;;;;1.40;1.30;;;-8.50;99.90;;;;;;4960097;28;20034;-77
2022/01/07 05:23:52;;;;;;;1.10;1.10;;;-8.50;99.90;;;;;;4960531;28;20024;-76
2022/01/07 05:26:18;;;;;;;2.67;1.10;;;-8.50;99.90;;;;;;4960004;28;20522;-77
2022/01/07 05:28:43;;;;;;;1.83;1.20;;;-8.50;99.90;;;;;;4960429;28;20042;-78
2022/01/07 05:31:09;;;;;;;1.20;1.05;;;-8.40;99.90;;;;;;4960239;28;20539;-77
2022/01/07 05:33:35;;;;;;;3.20;1.15;;;-8.40;99.90;;;;;;4960051;28;20031;-77
2022/01/07 05:36:00;;;;;;;2.35;1.33;;;-8.40;99.90;;;;;;4960466;28;20019;-77
2022/01/07 05:38:26;;;;;;;2.13;1.15;;;-8.40;99.90;;;;;;4959789;28;20557;-74
2022/01/07 05:40:52;;;;;;;1.13;1.10;;;-5.10;99.90;;;;;;4958864;28;20501;-75
2022/01/07 05:43:18;;;;;;;2.35;1.10;;;-3.50;99.90;;;;;;4960163;28;20104;-77
2022/01/07 05:45:45;;;;;;;0.85;0.85;;;-4.40;99.90;;;;;;4941400;28;20410;-73
2022/01/07 05:48:14;;;;;;;3.30;1.20;;;-5.30;99.90;;;;;;4941021;29;20032;-75
2022/01/07 05:50:40;;;;;;;1.20;1.10;;;-6.00;99.90;;;;;;4940720;29;20386;-75
2022/01/07 05:53:06;;;;;;;4.03;1.20;;;-6.50;99.90;;;;;;4940832;29;20036;-77
2022/01/07 05:55:32;;;;;;;1.95;1.05;;;-6.90;99.90;;;;;;4943379;29;20051;-80
2022/01/07 05:57:58;;;;;;;1.42;1.00;;;-7.20;99.90;;;;;;4940765;29;20490;-78
2022/01/07 06:00:24;;;;;;;1.17;1.10;;;-7.40;99.90;;;;;;4942992;29;20020;-79
2022/01/07 06:02:49;;;;;;;1.38;1.10;;;-7.60;99.90;;;;;;4940977;29;20032;-79
2022/01/07 06:05:15;;;;;;;2.33;1.20;;;-7.70;99.90;;;;;;4949972;29;20043;-82
2022/01/07 06:07:41;;;;;;;1.83;1.02;;;-7.80;99.90;;;;;;4948455;28;20039;-71
2022/01/07 06:10:08;;;;;;;1.30;1.20;;;-7.90;99.90;;;;;;4948362;29;20446;-71
2022/01/07 06:12:34;;;;;;;1.25;1.15;;;-7.90;99.90;;;;;;4959089;29;20399;-70
2022/01/07 06:15:00;;;;;;;1.40;1.13;;;-7.90;99.90;;;;;;4959742;28;20035;-70
2022/01/07 06:17:26;;;;;;;1.27;1.15;;;-8.00;99.90;;;;;;4959652;28;20027;-70
2022/01/07 06:19:52;;;;;;;1.70;1.40;;;-8.00;99.90;;;;;;4956177;28;20029;-70
2022/01/07 06:22:18;;;;;;;1.50;1.23;;;-8.10;99.90;;;;;;4957521;29;20031;-71
2022/01/07 06:24:44;;;;;;;1.40;1.20;;;-8.20;99.90;;;;;;4956438;28;20027;-70
2022/01/07 06:27:10;;;;;;;1.40;1.20;;;-8.20;99.90;;;;;;4956794;28;20036;-77
2022/01/07 06:29:37;;;;;;;2.05;1.30;;;-8.00;99.90;;;;;;4956499;28;20020;-73
2022/01/07 06:32:04;;;;;;;1.20;1.10;;;-7.80;99.90;;;;;;4956668;28;20447;-73
2022/01/07 06:34:30;;;;;;;3.25;1.40;;;-7.90;99.90;;;;;;4956402;28;20031;-73
2022/01/07 06:36:58;;;;;;;1.77;1.40;;;-8.10;99.90;;;;;;4956439;28;20089;-72
2022/01/07 06:39:24;;;;;;;3.42;1.48;;;-8.20;99.90;;;;;;4956429;28;20167;-73
2022/01/07 06:41:51;;;;;;;3.47;1.38;;;-8.30;99.90;;;;;;4956663;28;20027;-73
2022/01/07 06:44:17;;;;;;;3.72;1.10;;;-8.40;99.90;;;;;;4956522;28;20047;-73
2022/01/07 06:46:43;;;;;;;1.40;1.30;;;-8.40;99.90;;;;;;4956178;28;20483;-71
2022/01/07 06:49:09;;;;;;;7.82;1.20;;;-8.40;99.90;;;;;;4956296;28;20479;-73
2022/01/07 06:51:35;;;;;;;1.30;1.20;;;-8.30;99.90;;;;;;4956110;28;20027;-74
2022/01/07 06:54:02;;;;;;;1.90;1.30;;;-8.40;99.90;;;;;;4956171;28;20031;-73
2022/01/07 06:56:28;;;;;;;2.55;1.40;;;-8.40;99.90;;;;;;4956034;28;20035;-73
2022/01/07 06:58:54;;;;;;;1.40;1.30;;;-8.50;99.90;;;;;;4954874;28;20069;-73
2022/01/07 07:01:20;;;;;;;2.88;1.40;;;-8.60;99.90;;;;;;4956428;28;20066;-73
2022/01/07 07:03:46;;;;;;;1.52;1.42;;;-8.60;99.90;;;;;;4956267;28;20051;-71
2022/01/07 07:06:12;;;;;;;1.75;1.50;;;-8.20;99.90;;;;;;4950793;28;20043;-71
2022/01/07 07:08:38;;;;;;;2.15;1.25;;;-8.00;99.90;;;;;;4947487;28;20024;-71
2022/01/07 07:11:04;;;;;;;4.15;1.40;;;-8.10;99.90;;;;;;4948894;28;20042;-70
2022/01/07 07:13:30;;;;;;;13.13;1.30;;;-8.20;99.90;;;;;;4944308;29;20035;-70
2022/01/07 07:15:56;;;;;;;2.65;1.42;;;-8.40;99.90;;;;;;4944243;29;20035;-71
2022/01/07 07:18:22;;;;;;;1.92;1.10;;;-8.40;99.90;;;;;;4946247;29;20043;-71
2022/01/07 07:20:47;;;;;;;1.83;1.40;;;-8.50;99.90;;;;;;4955886;28;20023;-71
2022/01/07 07:23:13;;;;;;;1.45;1.35;;;-8.50;99.90;;;;;;4955796;28;20620;-71
2022/01/07 07:25:39;;;;;;;1.70;1.30;;;-8.50;99.90;;;;;;4955521;28;20043;-70
2022/01/07 07:28:05;;;;;;;2.63;1.58;;;-8.60;99.90;;;;;;4955653;28;20114;-70
2022/01/07 07:30:36;;;;;;;3.05;1.40;;;-8.60;99.90;;;;;;4955845;28;20154;-71
2022/01/07 07:33:28;;;;;;;1.40;1.30;;;-8.60;99.90;;;;;;4955715;28;20111;-71
2022/01/07 07:38:38;;;;;;;3.80;2.00;;;-8.70;99.90;;;;;;4955112;29;20054;-71
2022/01/07 07:41:06;;;;;;;6.15;4.18;;;-8.70;99.90;;;;;;4955513;28;20035;-71
2022/01/07 07:43:32;;;;;;;3.40;1.92;;;-8.70;99.90;;;;;;4955168;28;20054;-70
2022/01/07 07:45:58;;;;;;;3.70;1.33;;;-8.80;99.90;;;;;;4955236;28;20035;-71
2022/01/07 07:48:24;;;;;;;1.80;1.55;;;-8.80;99.90;;;;;;4955133;28;20042;-71
2022/01/07 07:50:50;;;;;;;3.08;1.65;;;-8.80;99.90;;;;;;4955244;28;20027;-70
2022/01/07 07:53:16;;;;;;;2.55;1.90;;;-8.80;99.90;;;;;;4955202;28;20118;-63
2022/01/07 07:55:43;;;;;;;5.70;1.77;;;-8.90;99.90;;;;;;4955288;28;20390;-67
2022/01/07 07:58:09;;;;;;;2.42;1.77;;;-8.90;99.90;;;;;;4955022;28;20426;-66
2022/01/07 08:00:35;;;;;;;1.40;1.30;;;-9.00;99.90;;;;;;4954890;28;20027;-64
2022/01/07 08:03:01;;;;;;;3.75;1.40;;;-9.10;99.90;;;;;;4955046;28;20028;-65
2022/01/07 08:05:27;;;;;;;2.88;1.70;;;-9.10;99.90;;;;;;4954977;28;20040;-69
2022/01/07 08:07:53;;;;;;;2.55;1.63;;;-9.10;99.90;;;;;;4953962;29;20463;-69
2022/01/07 08:10:23;;;;;;;1.52;1.42;;;-9.00;99.90;;;;;;4955047;28;20031;-69
2022/01/07 08:13:14;;;;;;;1.92;1.83;;;-9.00;99.90;;;;;;4954703;28;20479;-70
2022/01/07 08:16:00;;;;;;;4.18;1.80;;;-9.00;99.90;;;;;;4954465;28;20173;-70
2022/01/07 08:18:29;;;;;;;5.28;2.03;;;-8.90;99.90;;;;;;4954445;29;20126;-70
2022/01/07 08:21:06;;;;;;;2.58;1.60;;;-9.00;99.90;;;;;;4954985;28;20058;-70
2022/01/07 08:23:34;;;;;;;3.97;1.67;;;-9.10;99.90;;;;;;4954425;28;20118;-70
2022/01/07 08:26:00;;;;;;;4.05;1.48;;;-9.20;99.90;;;;;;4954776;28;20066;-70
2022/01/07 08:28:31;;;;;;;1.73;1.50;;;-9.20;99.90;;;;;;4954656;28;20031;-70
2022/01/07 08:31:14;;;;;;;1.77;1.20;;;-9.20;99.90;;;;;;4947050;28;20030;-70
2022/01/07 08:36:27;;;;;;;1.73;1.35;;;-9.20;99.90;;;;;;4941132;29;20051;-70
2022/01/07 08:38:53;;;;;;;5.38;1.70;;;-9.20;99.90;;;;;;4943196;29;20058;-70
2022/01/07 08:41:26;;;;;;;3.90;1.55;;;-9.20;99.90;;;;;;4944733;29;20107;-70
2022/01/07 08:43:52;;;;;;;3.67;1.63;;;-9.30;99.90;;;;;;4940190;29;20028;-70
2022/01/07 08:46:18;;;;;;;4.00;1.45;;;-9.30;99.90;;;;;;4944338;29;20716;-70
2022/01/07 08:48:44;;;;;;;3.60;1.40;;;-9.20;99.90;;;;;;4941307;29;20078;-70
2022/01/07 08:51:10;;;;;;;1.58;1.27;;;-9.30;99.90;;;;;;4945131;28;20055;-69
2022/01/07 08:53:36;;;;;;;2.83;1.30;;;-9.30;99.90;;;;;;4942583;29;20016;-70
2022/01/07 08:56:04;;;;;;;6.03;1.50;;;-9.30;99.90;;;;;;4942469;29;20032;-69
2022/01/07 08:58:30;;;;;;;2.17;1.30;;;-9.40;99.90;;;;;;4934801;29;20089;-70
2022/01/07 09:00:56;;;;;;;1.40;1.30;;;-9.40;99.90;;;;;;4935042;29;20103;-70
2022/01/07 09:03:22;;;;;;;2.75;1.30;;;-9.40;99.90;;;;;;4933732;29;20023;-69
2022/01/07 09:05:48;;;;;;;1.75;1.30;;;-9.40;99.90;;;;;;4934764;29;20086;-69
2022/01/07 09:08:14;;;;;;;1.10;1.10;;;-9.40;99.90;;;;;;4934871;29;20475;-70
2022/01/07 09:10:40;;;;;;;5.22;1.40;;;-9.40;99.90;;;;;;4934647;29;20065;-70
2022/01/07 09:13:07;;;;;;;2.97;1.38;;;-9.50;99.90;;;;;;4935127;29;20027;-69
2022/01/07 09:15:33;;;;;;;2.65;1.40;;;-9.50;99.90;;;;;;4934606;29;20031;-70
2022/01/07 09:17:59;;;;;;;2.30;1.38;;;-9.50;99.90;;;;;;4935128;29;20031;-70
2022/01/07 09:20:25;;;;;;;1.40;1.30;;;-9.50;99.90;;;;;;4934802;29;20027;-71
2022/01/07 09:22:51;;;;;;;5.60;1.50;;;-9.50;99.90;;;;;;4934829;29;20016;-70
2022/01/07 09:25:17;;;;;;;2.58;1.77;;;-9.50;99.90;;;;;;4934938;29;20087;-70
2022/01/07 09:27:43;;;;;;;3.17;1.50;;;-9.50;99.90;;;;;;4934600;29;20048;-70
2022/01/07 09:30:11;;;;;;;2.08;1.10;;;-9.50;99.90;;;;;;4934698;29;20059;-72
2022/01/07 09:32:37;;;;;;;1.77;1.50;;;-9.50;99.90;;;;;;4934513;29;20468;-71
2022/01/07 09:35:05;;;;;;;2.65;1.27;;;-9.50;99.90;;;;;;4934599;29;20040;-70
2022/01/07 09:37:31;;;;;;;8.43;1.30;;;-9.50;99.90;;;;;;4934234;29;20040;-68
2022/01/07 09:39:57;;;;;;;2.28;1.40;;;-8.00;99.90;;;;;;4949438;29;20043;-68
2022/01/07 09:42:22;;;;;;;1.40;1.30;;;-6.40;99.90;;;;;;4953653;28;20043;-68
2022/01/07 09:44:48;;;;;;;1.30;1.20;;;-4.80;99.90;;;;;;4953455;28;20030;-68
2022/01/07 09:47:14;;;;;;;2.10;1.30;;;-5.40;99.90;;;;;;4953931;28;20475;-68
2022/01/07 09:49:41;;;;;;;1.30;1.20;;;-6.60;99.90;;;;;;4953446;28;20067;-68
2022/01/07 09:52:08;;;;;;;1.48;1.25;;;-7.40;99.90;;;;;;4953620;28;20497;-68
2022/01/07 09:54:37;;;;;;;1.65;1.20;;;-7.90;99.90;;;;;;4952336;29;20039;-68
2022/01/07 09:57:06;;;;;;;1.50;1.38;;;-8.20;99.90;;;;;;4953628;28;20027;-68
2022/01/07 09:59:33;;;;;;;2.35;1.30;;;-8.50;99.90;;;;;;4955173;28;20074;-68
2022/01/07 10:02:04;;;;;;;2.75;1.40;;;-8.60;99.90;;;;;;4957468;28;20035;-67
2022/01/07 10:04:40;;;;;;;3.97;1.42;;;-8.70;99.90;;;;;;4957119;28;20553;-65
2022/01/07 10:07:14;;;;;;;3.22;1.65;;;-8.80;99.90;;;;;;4957416;28;20035;-65
2022/01/07 10:09:41;;;;;;;2.30;1.40;;;-8.90;99.90;;;;;;4956949;28;20033;-65
2022/01/07 10:12:07;;;;;;;2.17;1.52;;;-9.00;99.90;;;;;;4957663;28;20046;-65
2022/01/07 10:14:36;;;;;;;5.05;1.50;;;-9.10;99.90;;;;;;4956690;28;20043;-66
2022/01/07 10:17:03;;;;;;;1.70;1.60;;;-9.10;99.90;;;;;;4956954;28;20102;-65
2022/01/07 10:19:41;;;;;;;2.92;1.50;;;-9.10;99.90;;;;;;4957671;28;20038;-66
2022/01/07 10:22:12;;;;;;;1.70;1.45;;;-9.20;99.90;;;;;;4956980;28;20103;-65
2022/01/07 10:24:59;;;;;;;2.00;1.40;;;-9.20;99.90;;;;;;4956666;28;20032;-65
2022/01/07 10:27:36;;;;;;;1.67;1.25;;;-9.20;99.90;;;;;;4956866;28;20034;-65
2022/01/07 10:30:10;;;;;;;4.07;1.35;;;-9.30;99.90;;;;;;4943664;28;20034;-65
2022/01/07 10:32:37;;;;;;;1.35;1.25;;;-9.30;99.90;;;;;;4937360;29;20039;-65
2022/01/07 10:35:06;;;;;;;1.20;1.08;;;-9.40;99.90;;;;;;4937603;29;20038;-65
2022/01/07 10:37:33;;;;;;;3.17;1.35;;;-9.40;99.90;;;;;;4937129;29;20499;-65
2022/01/07 10:39:59;;;;;;;2.35;1.30;;;-9.40;99.90;;;;;;4937302;29;20420;-65
2022/01/07 10:42:26;;;;;;;0.80;0.80;;;-9.50;99.90;;;;;;4937310;29;20032;-65
2022/01/07 10:45:03;;;;;;;4.15;1.33;;;-9.50;99.90;;;;;;4937109;29;20074;-65
2022/01/07 10:47:30;;;;;;;3.15;1.25;;;-9.70;99.90;;;;;;4937215;29;20065;-68
2022/01/07 10:50:17;;;;;;;2.85;1.25;;;-9.70;99.90;;;;;;4937057;29;20023;-66
2022/01/07 10:52:42;;;;;;;2.40;1.30;;;-9.70;99.90;;;;;;4937311;29;20037;-66
2022/01/07 10:55:12;;;;;;;1.40;1.30;;;-9.70;99.90;;;;;;4937294;29;20027;-66
2022/01/07 10:57:44;;;;;;;2.88;1.60;;;-9.70;99.90;;;;;;4936963;29;20088;-66
2022/01/07 11:00:14;;;;;;;7.25;1.58;;;-9.60;99.90;;;;;;4936979;29;20042;-66
2022/01/07 11:02:40;;;;;;;2.75;1.75;;;-9.60;99.90;;;;;;4936874;29;20023;-66
2022/01/07 11:05:07;;;;;;;1.75;1.23;;;-9.70;99.90;;;;;;4936986;29;20037;-66
2022/01/07 11:07:34;;;;;;;1.60;1.50;;;-9.70;99.90;;;;;;4936812;29;20057;-66
2022/01/07 11:09:59;;;;;;;2.50;1.50;;;-9.70;99.90;;;;;;4936349;29;20028;-66
2022/01/07 11:12:30;;;;;;;1.30;1.20;;;-9.70;99.90;;;;;;4936290;29;20027;-66
2022/01/07 11:14:57;;;;;;;2.78;1.30;;;-9.70;99.90;;;;;;4936776;29;20368;-66
2022/01/07 11:17:23;;;;;;;3.58;1.35;;;-9.70;99.90;;;;;;4936646;29;20035;-65
2022/01/07 11:19:55;;;;;;;2.63;1.50;;;-8.20;99.90;;;;;;4936413;29;20542;-66
2022/01/07 11:22:22;;;;;;;2.53;1.63;;;-7.80;99.90;;;;;;4936681;29;20016;-67
2022/01/07 11:24:54;;;;;;;2.53;1.52;;;-8.10;99.90;;;;;;4936412;29;20128;-67
2022/01/07 11:27:23;;;;;;;3.97;1.20;;;-8.30;99.90;;;;;;4939200;29;20111;-67
2022/01/07 11:30:04;;;;;;;2.88;1.60;;;-8.40;99.90;;;;;;4949985;28;20023;-67
2022/01/07 11:32:33;;;;;;;1.50;1.40;;;-8.40;99.90;;;;;;4949409;29;20082;-67
2022/01/07 11:35:17;;;;;;;1.30;1.20;;;-8.40;99.90;;;;;;4946093;29;20027;-67
2022/01/07 11:37:44;;;;;;;4.72;1.60;;;-8.50;99.90;;;;;;4949529;28;20043;-67
2022/01/07 11:40:29;;;;;;;3.03;1.15;;;-8.50;99.90;;;;;;4943015;28;20035;-67
2022/01/07 11:42:56;;;;;;;2.22;1.30;;;-8.50;99.90;;;;;;4944604;29;20093;-66
2022/01/07 11:45:40;;;;;;;1.38;1.25;;;-8.50;99.90;;;;;;4952711;28;20070;-67
2022/01/07 11:48:20;;;;;;;1.40;1.30;;;-8.50;99.90;;;;;;4955230;28;20094;-67
2022/01/07 11:50:55;;;;;;;5.60;1.30;;;-8.50;99.90;;;;;;4955089;28;20046;-66
2022/01/07 11:53:22;;;;;;;1.10;1.00;;;-8.50;99.90;;;;;;4955202;28;20030;-67
2022/01/07 11:55:49;;;;;;;3.40;1.23;;;-8.50;99.90;;;;;;4939547;28;20027;-67
2022/01/07 11:58:15;;;;;;;3.70;1.58;;;-8.50;99.90;;;;;;4936124;29;20063;-68
2022/01/07 12:00:59;;;;;;;3.47;1.48;;;-8.50;99.90;;;;;;4940564;29;20027;-68
2022/01/07 12:03:43;;;;;;;1.25;1.25;;;-8.50;99.90;;;;;;4945897;29;20556;-67
2022/01/07 12:06:30;;;;;;;2.10;1.50;;;-8.20;99.90;;;;;;4946536;29;20043;-68
2022/01/07 12:09:21;;;;;;;1.55;1.33;;;-8.00;99.90;;;;;;4955039;28;20368;-67
2022/01/07 12:12:00;;;;;;;;;;;-8.20;99.90;;;;;;4955144;28;20562;-67
2022/01/07 12:14:51;;;;;;;1.73;1.48;;;-8.40;99.90;;;;;;4954668;28;19906;-67
2022/01/07 12:17:18;;;;;;;4.60;1.83;;;-8.50;99.90;;;;;;4954973;28;20031;-68
2022/01/07 12:19:47;;;;;;;3.53;2.00;;;-8.50;99.90;;;;;;4954488;28;20019;-65
2022/01/07 12:22:16;;;;;;;3.10;1.83;;;-8.60;99.90;;;;;;4954674;28;20026;-65
2022/01/07 12:24:43;;;;;;;4.68;1.98;;;-8.70;99.90;;;;;;4954420;28;20118;-65
2022/01/07 12:27:14;;;;;;;2.50;1.50;;;-8.70;99.90;;;;;;4954551;28;20074;-65
2022/01/07 12:29:42;;;;;;;1.88;1.58;;;-8.70;99.90;;;;;;4954409;28;20024;-64
2022/01/07 12:32:10;;;;;;;2.05;1.20;;;-8.80;99.90;;;;;;4954430;28;20027;-65
2022/01/07 12:34:43;;;;;;;1.50;1.40;;;-8.80;99.90;;;;;;4954443;28;20023;-67
2022/01/07 12:37:10;;;;;;;1.75;1.63;;;-8.90;99.90;;;;;;4954208;29;20122;-65
2022/01/07 12:39:39;;;;;;;1.52;1.33;;;-8.80;99.90;;;;;;4954616;28;20394;-66
2022/01/07 12:42:06;;;;;;;2.17;1.40;;;-8.80;99.90;;;;;;4947839;28;20035;-66
2022/01/07 12:44:38;;;;;;;1.45;1.27;;;-8.30;99.90;;;;;;4935209;29;20055;-66
2022/01/07 12:47:06;;;;;;;3.25;1.48;;;-7.40;99.90;;;;;;4935066;29;20090;-66
2022/01/07 12:49:44;;;;;;;1.40;1.30;;;-7.50;99.90;;;;;;4935208;29;20020;-65
2022/01/07 12:52:30;;;;;;;1.30;1.20;;;-8.10;99.90;;;;;;4935220;29;20039;-66
2022/01/07 12:55:12;;;;;;;1.83;1.60;;;-8.50;99.90;;;;;;4934664;29;20035;-66
2022/01/07 12:58:02;;;;;;;1.98;1.30;;;-8.90;99.90;;;;;;4935398;29;20064;-66
2022/01/07 13:00:32;;;;;;;3.10;1.55;;;-9.30;99.90;;;;;;4933769;29;20144;-66
2022/01/07 13:03:06;;;;;;;1.63;1.52;;;-9.50;99.90;;;;;;4934904;29;20069;-66
2022/01/07 13:05:40;;;;;;;1.58;1.40;;;-9.60;99.90;;;;;;4934888;29;20039;-65
2022/01/07 13:08:09;;;;;;;1.23;1.15;;;-9.80;99.90;;;;;;4934798;29;20035;-66
2022/01/07 13:10:37;;;;;;;1.30;1.20;;;-9.90;99.90;;;;;;4934970;29;20549;-66
2022/01/07 13:13:10;;;;;;;2.13;1.40;;;-10.00;99.90;;;;;;4935034;29;20326;-66
2022/01/07 13:15:39;;;;;;;2.55;1.38;;;-10.10;99.90;;;;;;4934779;29;20028;-66
2022/01/07 13:18:26;;;;;;;1.48;1.38;;;-10.10;99.90;;;;;;4934733;29;20026;-66
2022/01/07 13:21:13;;;;;;;1.27;1.20;;;-7.10;99.90;;;;;;4940310;29;20395;-66
2022/01/07 13:23:50;;;;;;;1.30;1.20;;;-7.20;99.90;;;;;;4943724;29;20031;-66
2022/01/07 13:26:17;;;;;;;2.38;1.73;;;-7.90;99.90;;;;;;4943612;29;20074;-66
2022/01/07 13:28:44;;;;;;;4.72;1.30;;;-8.20;99.90;;;;;;4943034;28;20047;-67
2022/01/07 13:31:14;;;;;;;1.25;1.15;;;-8.60;99.90;;;;;;4947425;29;20027;-67
2022/01/07 13:33:43;;;;;;;1.98;1.27;;;-8.70;99.90;;;;;;4954646;28;20031;-67
2022/01/07 13:36:12;;;;;;;1.40;1.30;;;-7.10;99.90;;;;;;4951822;28;20081;-66
2022/01/07 13:38:38;;;;;;;1.33;1.23;;;-7.20;99.90;;;;;;4957427;28;20051;-66
2022/01/07 13:41:06;;;;;;;1.33;1.20;;;-8.00;99.90;;;;;;4957403;28;20030;-66
2022/01/07 13:43:33;;;;;;;1.20;1.10;;;-8.70;99.90;;;;;;4957802;28;20031;-66
2022/01/07 13:46:09;;;;;;;1.88;1.40;;;-9.20;99.90;;;;;;4957471;28;20623;-66
2022/01/07 13:48:48;;;;;;;2.05;1.10;;;-9.60;99.90;;;;;;4957444;28;20039;-67
2022/01/07 13:51:13;;;;;;;1.13;1.13;;;-9.90;99.90;;;;;;4957521;28;20031;-67
2022/01/07 13:53:39;;;;;;;3.00;1.40;;;-10.10;99.90;;;;;;4957796;28;20082;-68
2022/01/07 13:56:09;;;;;;;1.50;1.40;;;-10.20;99.90;;;;;;4957274;29;20107;-68
2022/01/07 13:58:35;;;;;;;5.75;1.48;;;-10.20;99.90;;;;;;4956049;28;20062;-67
2022/01/07 14:01:08;;;;;;;1.98;1.55;;;-9.80;99.90;;;;;;4943390;28;20027;-67
2022/01/07 14:03:51;;;;;;;1.92;1.52;;;-9.70;99.90;;;;;;4938431;29;20031;-68